createdAt,value
2024-01-14T00:03:19.615Z,19.80
2024-01-14T00:05:47.216Z,17.38
2024-01-14T00:08:14.820Z,17.77
2024-01-14T00:10:42.193Z,16.98
2024-01-14T00:13:09.603Z,17.38
2024-01-14T00:15:37.074Z,19.88
2024-01-14T00:18:04.754Z,17.83
2024-01-14T00:20:32.274Z,17.95
2024-01-14T00:22:59.708Z,18.13
2024-01-14T00:25:28.150Z,21.02
2024-01-14T00:27:55.497Z,24.65
2024-01-14T00:30:22.970Z,24.38
2024-01-14T00:32:50.585Z,22.77
2024-01-14T00:35:18.104Z,20.45
2024-01-14T00:37:48.693Z,25.27
2024-01-14T00:40:16.094Z,21.88
2024-01-14T00:42:43.569Z,24.33
2024-01-14T00:45:13.303Z,23.13
2024-01-14T00:47:40.813Z,24.42
2024-01-14T00:50:08.302Z,22.52
2024-01-14T00:52:35.738Z,23.60
2024-01-14T00:55:03.140Z,25.25
2024-01-14T00:57:30.686Z,25.20
2024-01-14T00:59:58.238Z,22.95
2024-01-14T01:02:25.794Z,27.10
2024-01-14T01:04:53.647Z,23.60
2024-01-14T01:07:21.796Z,26.60
2024-01-14T01:09:49.249Z,26.15
2024-01-14T01:12:16.681Z,28.58
2024-01-14T01:14:45.009Z,26.23
2024-01-14T01:17:14.622Z,23.70
2024-01-14T01:19:42.297Z,25.05
2024-01-14T01:22:09.765Z,26.42
2024-01-14T01:24:39.820Z,25.40
2024-01-14T01:27:07.957Z,27.67
2024-01-14T01:29:35.282Z,28.70
2024-01-14T01:32:07.853Z,25.80
2024-01-14T01:34:36.372Z,25.33
2024-01-14T01:37:03.990Z,27.27
2024-01-14T01:39:31.994Z,24.52
2024-01-14T01:42:00.552Z,28.23
2024-01-14T01:44:28.089Z,30.85
2024-01-14T01:46:57.023Z,28.92
2024-01-14T01:49:24.618Z,30.38
2024-01-14T01:51:52.854Z,27.35
2024-01-14T01:54:21.782Z,32.65
2024-01-14T01:56:49.920Z,30.67
2024-01-14T01:59:17.528Z,29.40
2024-01-14T02:01:46.381Z,28.63
2024-01-14T02:04:15.023Z,32.58
2024-01-14T02:06:42.505Z,30.17
2024-01-14T02:09:10.507Z,31.45
2024-01-14T02:11:38.412Z,28.13
2024-01-14T02:14:06.580Z,28.67
2024-01-14T02:16:34.251Z,28.75
2024-01-14T02:19:03.151Z,29.50
2024-01-14T02:21:50.982Z,28.83
2024-01-14T02:24:21.429Z,26.55
2024-01-14T02:26:48.920Z,27.63
2024-01-14T02:29:16.437Z,28.95
2024-01-14T02:31:43.949Z,33.45
2024-01-14T02:34:11.879Z,29.98
2024-01-14T02:36:39.578Z,31.35
2024-01-14T02:39:07.363Z,28.50
2024-01-14T02:41:37.790Z,26.02
2024-01-14T02:44:05.203Z,30.33
2024-01-14T02:46:32.768Z,32.53
2024-01-14T02:49:00.354Z,32.00
2024-01-14T02:51:28.207Z,32.55
2024-01-14T02:53:55.597Z,34.78
2024-01-14T02:56:22.925Z,31.45
2024-01-14T02:58:50.330Z,33.15
2024-01-14T03:01:17.985Z,33.75
2024-01-14T03:03:45.544Z,30.17
2024-01-14T03:06:13.479Z,30.63
2024-01-14T03:08:41.369Z,30.67
2024-01-14T03:11:08.735Z,33.08
2024-01-14T03:13:36.116Z,32.03
2024-01-14T03:16:03.495Z,29.33
2024-01-14T03:18:30.990Z,28.58
2024-01-14T03:20:58.512Z,30.73
2024-01-14T03:23:25.932Z,29.65
2024-01-14T03:25:53.601Z,28.85
2024-01-14T03:28:21.028Z,32.00
2024-01-14T03:30:48.529Z,29.20
2024-01-14T03:33:16.059Z,28.40
2024-01-14T03:35:43.502Z,31.42
2024-01-14T03:38:10.980Z,32.55
2024-01-14T03:40:38.327Z,28.80
2024-01-14T03:43:05.775Z,33.63
2024-01-14T03:45:33.377Z,30.85
2024-01-14T03:48:00.931Z,31.63
2024-01-14T03:50:28.344Z,33.22
2024-01-14T03:52:55.638Z,32.50
2024-01-14T03:55:22.996Z,32.47
2024-01-14T03:57:50.339Z,32.58
2024-01-14T04:00:17.896Z,32.28
2024-01-14T04:02:45.212Z,34.92
2024-01-14T04:05:12.633Z,37.20
2024-01-14T04:07:40.000Z,32.30
2024-01-14T04:10:07.418Z,32.38
2024-01-14T04:12:35.024Z,31.40
2024-01-14T04:15:02.580Z,30.65
2024-01-14T04:17:30.044Z,32.20
2024-01-14T04:19:57.466Z,28.45
2024-01-14T04:22:24.872Z,29.38
2024-01-14T04:24:52.189Z,32.92
2024-01-14T04:27:19.615Z,26.55
2024-01-14T04:29:47.057Z,32.45
2024-01-14T04:32:14.419Z,36.53
2024-01-14T04:34:42.133Z,35.22
2024-01-14T04:37:09.547Z,32.65
2024-01-14T04:39:37.026Z,35.83
2024-01-14T04:42:04.581Z,36.78
2024-01-14T04:44:32.003Z,32.15
2024-01-14T04:46:59.385Z,35.67
2024-01-14T04:49:27.043Z,34.72
2024-01-14T04:51:54.410Z,34.08
2024-01-14T04:54:21.784Z,35.60
2024-01-14T04:56:49.186Z,36.03
2024-01-14T04:59:16.567Z,39.30
2024-01-14T05:01:43.901Z,33.80
2024-01-14T05:04:11.308Z,35.97
2024-01-14T05:06:38.645Z,35.03
2024-01-14T05:09:06.423Z,35.45
2024-01-14T05:11:33.898Z,33.53
2024-01-14T05:14:01.267Z,34.60
2024-01-14T05:16:28.852Z,35.65
2024-01-14T05:18:57.364Z,35.83
2024-01-14T05:21:24.868Z,36.50
2024-01-14T05:23:52.351Z,37.05
2024-01-14T05:26:19.775Z,35.13
2024-01-14T05:28:47.174Z,34.78
2024-01-14T05:31:14.568Z,34.42
2024-01-14T05:33:42.157Z,37.92
2024-01-14T05:36:09.785Z,35.55
2024-01-14T05:38:37.148Z,36.17
2024-01-14T05:41:04.649Z,32.20
2024-01-14T05:43:32.086Z,36.75
2024-01-14T05:45:59.471Z,31.92
2024-01-14T05:48:27.000Z,33.15
2024-01-14T05:50:54.630Z,38.38
2024-01-14T05:53:22.047Z,31.85
2024-01-14T05:55:49.459Z,34.08
2024-01-14T05:58:16.971Z,31.98
2024-01-14T06:00:44.568Z,38.20
2024-01-14T06:03:12.038Z,33.25
2024-01-14T06:05:39.521Z,33.50
2024-01-14T06:08:06.882Z,36.50
2024-01-14T06:10:34.226Z,36.70
2024-01-14T06:13:01.574Z,35.83
2024-01-14T06:15:29.104Z,39.65
2024-01-14T06:17:56.764Z,40.92
2024-01-14T06:20:24.200Z,33.47
2024-01-14T06:22:51.513Z,34.70
2024-01-14T06:25:19.018Z,34.05
2024-01-14T06:27:46.363Z,39.83
2024-01-14T06:30:14.285Z,34.83
2024-01-14T06:32:42.034Z,38.55
2024-01-14T06:35:09.653Z,34.88
2024-01-14T06:37:38.618Z,35.25
2024-01-14T06:40:06.718Z,36.83
2024-01-14T06:42:34.335Z,33.83
2024-01-14T06:45:01.774Z,33.55
2024-01-14T06:47:29.330Z,34.47
2024-01-14T06:50:03.877Z,31.88
2024-01-14T06:52:38.782Z,36.05
2024-01-14T06:55:06.443Z,35.55
2024-01-14T06:57:34.783Z,34.97
2024-01-14T07:00:05.167Z,38.95
2024-01-14T07:02:32.926Z,36.22
2024-01-14T07:05:00.316Z,39.70
2024-01-14T07:07:28.869Z,36.70
2024-01-14T07:09:56.504Z,33.88
2024-01-14T07:12:25.689Z,40.42
2024-01-14T07:17:20.786Z,37.13
2024-01-14T07:19:48.453Z,40.30
2024-01-14T07:22:15.917Z,38.63
2024-01-14T07:24:43.304Z,39.47
2024-01-14T07:27:10.707Z,36.65
2024-01-14T07:29:38.213Z,35.40
2024-01-14T07:32:06.659Z,35.22
2024-01-14T07:34:37.128Z,38.88
2024-01-14T07:37:04.608Z,36.35
2024-01-14T07:39:36.140Z,39.03
2024-01-14T07:42:03.940Z,36.20
2024-01-14T07:44:36.678Z,38.78
2024-01-14T07:47:07.792Z,37.42
2024-01-14T07:49:39.728Z,38.40
2024-01-14T07:52:10.030Z,37.70
2024-01-14T07:54:40.342Z,38.05
2024-01-14T07:57:08.150Z,39.00
2024-01-14T07:59:39.803Z,40.38
2024-01-14T08:02:08.320Z,36.75
2024-01-14T08:04:35.675Z,39.53
2024-01-14T08:07:03.068Z,39.85
2024-01-14T08:09:30.408Z,36.85
2024-01-14T08:12:00.222Z,36.35
2024-01-14T08:14:27.582Z,36.25
2024-01-14T08:16:54.900Z,40.78
2024-01-14T08:19:22.404Z,37.30
2024-01-14T08:21:49.898Z,37.03
2024-01-14T08:24:17.388Z,35.17
2024-01-14T08:26:45.907Z,36.80
2024-01-14T08:29:24.757Z,38.83
2024-01-14T08:31:54.153Z,35.05
2024-01-14T08:34:21.699Z,35.10
2024-01-14T08:36:49.114Z,34.38
2024-01-14T08:39:16.563Z,34.72
2024-01-14T08:41:44.112Z,35.85
2024-01-14T08:44:12.288Z,38.67
2024-01-14T08:46:43.336Z,36.88
2024-01-14T08:49:11.127Z,37.65
2024-01-14T08:51:41.228Z,31.95
2024-01-14T08:54:08.691Z,32.92
2024-01-14T08:56:36.027Z,39.58
2024-01-14T08:59:03.400Z,33.00
2024-01-14T09:01:30.789Z,34.90
2024-01-14T09:03:58.305Z,32.17
2024-01-14T09:06:25.910Z,32.03
2024-01-14T09:08:53.347Z,35.55
2024-01-14T09:11:20.711Z,35.30
2024-01-14T09:13:48.324Z,36.97
2024-01-14T09:16:15.734Z,33.03
2024-01-14T09:18:43.432Z,37.97
2024-01-14T09:21:10.938Z,37.25
2024-01-14T09:23:38.320Z,40.38
2024-01-14T09:26:05.942Z,36.38
2024-01-14T09:28:34.167Z,37.05
2024-01-14T09:31:01.594Z,35.13
2024-01-14T09:33:29.128Z,38.65
2024-01-14T09:35:56.889Z,32.38
2024-01-14T09:38:24.418Z,36.50
2024-01-14T09:40:58.855Z,33.67
2024-01-14T09:43:29.436Z,31.92
2024-01-14T09:45:56.948Z,33.53
2024-01-14T09:48:24.507Z,31.25
2024-01-14T09:50:53.511Z,31.15
2024-01-14T09:53:21.396Z,30.85
2024-01-14T09:55:52.099Z,32.33
2024-01-14T09:58:19.890Z,35.10
2024-01-14T10:00:48.801Z,34.60
2024-01-14T10:03:16.360Z,33.80
2024-01-14T10:10:09.651Z,30.27
2024-01-14T10:12:37.193Z,33.33
2024-01-14T10:15:06.005Z,34.60
2024-01-14T10:17:36.992Z,34.90
2024-01-14T10:20:04.580Z,39.80
2024-01-14T10:22:32.045Z,34.50
2024-01-14T10:24:59.419Z,35.33
2024-01-14T10:27:35.529Z,33.58
2024-01-14T10:30:13.244Z,31.05
2024-01-14T10:33:16.177Z,39.33
2024-01-14T10:35:30.539Z,33.05
2024-01-14T10:37:58.656Z,36.00
2024-01-14T10:40:26.459Z,29.35
2024-01-14T10:42:54.063Z,34.22
2024-01-14T10:45:23.264Z,35.28
2024-01-14T10:47:55.156Z,35.78
2024-01-14T10:50:28.547Z,34.88
2024-01-14T10:52:58.617Z,33.25
2024-01-14T10:55:42.303Z,29.20
2024-01-14T10:58:15.026Z,35.83
2024-01-14T11:00:44.005Z,32.00
2024-01-14T11:03:11.733Z,29.02
2024-01-14T11:05:39.636Z,31.35
2024-01-14T11:08:07.139Z,28.80
2024-01-14T11:10:34.891Z,29.92
2024-01-14T11:13:18.000Z,32.03
2024-01-14T11:15:56.261Z,28.77
2024-01-14T11:18:33.917Z,28.08
2024-01-14T11:21:33.919Z,30.40
2024-01-14T11:24:09.431Z,33.58
2024-01-14T11:26:37.640Z,29.50
2024-01-14T11:29:05.369Z,29.60
2024-01-14T11:31:51.523Z,31.65
2024-01-14T11:34:37.865Z,30.20
2024-01-14T11:42:04.050Z,29.85
2024-01-14T11:44:34.715Z,31.88
2024-01-14T11:47:02.093Z,34.50
2024-01-14T11:49:30.012Z,37.38
2024-01-14T11:52:00.975Z,35.85
2024-01-14T11:54:28.775Z,37.72
2024-01-14T11:56:56.512Z,36.42
2024-01-14T12:01:54.067Z,36.88
2024-01-14T12:04:26.334Z,42.95
2024-01-14T12:06:53.843Z,42.95
2024-01-14T12:09:21.259Z,39.33
2024-01-14T12:11:48.554Z,39.58
2024-01-14T12:14:15.853Z,41.97
2024-01-14T12:16:43.319Z,36.80
2024-01-14T12:19:14.557Z,38.65
2024-01-14T12:21:41.981Z,39.20
2024-01-14T12:24:09.622Z,37.70
2024-01-14T12:26:37.084Z,33.90
2024-01-14T12:29:05.207Z,32.47
2024-01-14T12:31:49.406Z,37.53
2024-01-14T12:34:24.169Z,35.40
2024-01-14T12:36:54.358Z,30.92
2024-01-14T12:39:22.811Z,34.22
2024-01-14T12:41:54.470Z,29.70
2024-01-14T12:44:23.712Z,31.38
2024-01-14T12:46:56.113Z,31.30
2024-01-14T12:49:27.300Z,29.25
2024-01-14T12:52:07.497Z,26.05
2024-01-14T12:54:36.086Z,27.15
2024-01-14T12:57:04.543Z,29.92
2024-01-14T12:59:32.977Z,27.30
2024-01-14T13:02:03.556Z,29.80
2024-01-14T13:04:31.029Z,27.67
2024-01-14T13:06:59.277Z,29.77
2024-01-14T13:09:27.417Z,31.83
2024-01-14T13:11:54.807Z,34.25
2024-01-14T13:14:22.196Z,30.73
2024-01-14T13:16:54.052Z,28.50
2024-01-14T13:19:22.784Z,33.30
2024-01-14T13:21:50.409Z,36.10
2024-01-14T13:24:17.977Z,31.77
2024-01-14T13:26:45.375Z,34.50
2024-01-14T13:29:13.496Z,30.63
2024-01-14T13:31:42.956Z,32.65
2024-01-14T13:34:10.753Z,30.80
2024-01-14T13:36:38.590Z,29.52
2024-01-14T13:39:06.430Z,30.33
2024-01-14T13:41:34.396Z,28.67
2024-01-14T13:46:32.509Z,32.95
2024-01-14T13:48:59.994Z,31.67
2024-01-14T13:51:27.530Z,32.33
2024-01-14T13:54:03.443Z,32.00
2024-01-14T13:56:40.833Z,32.67
2024-01-14T13:59:09.983Z,31.67
2024-01-14T14:01:39.367Z,29.90
2024-01-14T14:04:07.437Z,30.95
2024-01-14T14:06:38.064Z,31.38
2024-01-14T14:09:10.737Z,30.98
2024-01-14T14:11:39.420Z,29.98
2024-01-14T14:14:07.505Z,32.90
2024-01-14T14:16:41.171Z,31.88
2024-01-14T14:19:13.151Z,29.90
2024-01-14T14:21:54.392Z,29.65
2024-01-14T14:24:28.313Z,29.67
2024-01-14T14:26:55.828Z,28.85
2024-01-14T14:29:25.369Z,25.95
2024-01-14T14:31:53.934Z,26.70
2024-01-14T14:34:22.050Z,24.65
2024-01-14T14:36:50.367Z,27.23
2024-01-14T14:39:18.480Z,27.83
2024-01-14T14:41:46.378Z,25.88
2024-01-14T14:44:13.731Z,26.25
2024-01-14T14:46:41.553Z,25.48
2024-01-14T14:49:09.092Z,28.85
2024-01-14T14:51:40.676Z,23.85
2024-01-14T14:54:12.134Z,24.88
2024-01-14T14:56:40.128Z,26.00
2024-01-14T14:59:07.870Z,25.23
2024-01-14T15:01:42.514Z,27.23
2024-01-14T15:04:14.091Z,27.42
2024-01-14T15:06:43.751Z,28.73
2024-01-14T15:09:12.405Z,28.52
2024-01-14T15:11:41.079Z,25.58
2024-01-14T15:14:09.910Z,28.30
2024-01-14T15:16:37.608Z,29.27
2024-01-14T15:19:05.351Z,27.52
2024-01-14T15:21:33.346Z,29.77
2024-01-14T15:24:00.924Z,32.80
2024-01-14T15:26:28.968Z,25.25
2024-01-14T15:28:56.416Z,32.85
2024-01-14T15:31:24.021Z,29.95
2024-01-14T15:33:51.971Z,29.85
2024-01-14T15:36:20.027Z,30.95
2024-01-14T15:38:48.397Z,28.70
2024-01-14T15:41:16.540Z,28.33
2024-01-14T15:43:44.131Z,28.38
2024-01-14T15:46:11.865Z,25.05
2024-01-14T15:48:42.286Z,23.65
2024-01-14T15:51:13.917Z,24.88
2024-01-14T15:53:42.803Z,23.83
2024-01-14T15:56:10.685Z,27.95
2024-01-14T15:58:39.939Z,24.65
2024-01-14T16:01:10.967Z,23.98
2024-01-14T16:03:40.981Z,27.65
2024-01-14T16:06:09.487Z,24.50
2024-01-14T16:08:37.458Z,25.58
2024-01-14T16:11:07.030Z,24.17
2024-01-14T16:13:36.323Z,27.50
2024-01-14T16:16:05.604Z,28.83
2024-01-14T16:18:33.525Z,25.02
2024-01-14T16:21:05.235Z,24.60
2024-01-14T16:23:35.215Z,26.15
2024-01-14T16:26:03.704Z,24.05
2024-01-14T16:28:32.387Z,26.33
2024-01-14T16:31:09.702Z,24.33
2024-01-14T16:33:41.521Z,26.48
2024-01-14T16:36:09.894Z,26.15
2024-01-14T16:38:37.362Z,31.02
2024-01-14T16:41:06.373Z,26.05
2024-01-14T16:43:37.714Z,31.08
2024-01-14T16:46:05.459Z,27.55
2024-01-14T16:48:33.787Z,30.48
2024-01-14T16:51:08.018Z,29.70
2024-01-14T16:53:39.135Z,30.00
2024-01-14T16:56:07.628Z,31.45
2024-01-14T16:58:35.529Z,30.02
2024-01-14T17:01:13.866Z,29.17
2024-01-14T17:03:45.668Z,28.95
2024-01-14T17:06:15.691Z,27.45
2024-01-14T17:08:45.203Z,30.88
2024-01-14T17:11:14.534Z,30.90
2024-01-14T17:13:42.331Z,27.95
2024-01-14T17:16:20.038Z,30.17
2024-01-14T17:18:47.802Z,27.35
2024-01-14T17:21:15.317Z,26.75
2024-01-14T17:23:42.780Z,27.55
2024-01-14T17:26:10.276Z,29.33
2024-01-14T17:28:41.086Z,29.67
2024-01-14T17:31:16.060Z,24.85
2024-01-14T17:33:45.183Z,21.95
2024-01-14T17:36:13.700Z,23.48
2024-01-14T17:38:41.900Z,21.70
2024-01-14T17:41:10.354Z,25.25
2024-01-14T17:43:38.453Z,24.27
2024-01-14T17:46:08.633Z,23.27
2024-01-14T17:48:41.516Z,20.38
2024-01-14T17:51:10.344Z,21.52
2024-01-14T17:53:42.694Z,25.90
2024-01-14T17:56:10.403Z,19.70
2024-01-14T17:58:38.086Z,20.23
2024-01-14T18:01:07.572Z,21.30
2024-01-14T18:03:35.218Z,20.45
2024-01-14T18:06:03.257Z,22.27
2024-01-14T18:08:30.902Z,22.92
2024-01-14T18:10:58.494Z,21.80
2024-01-14T18:13:26.058Z,18.50
2024-01-14T18:15:54.945Z,14.45
2024-01-14T18:18:22.459Z,15.70
2024-01-14T18:20:49.934Z,15.30
2024-01-14T18:23:17.307Z,16.48
2024-01-14T18:25:45.801Z,12.07
2024-01-14T18:28:14.519Z,12.35
2024-01-14T18:30:42.583Z,10.98
2024-01-14T18:33:13.029Z,11.60
2024-01-14T18:35:43.700Z,12.38
2024-01-14T18:38:12.811Z,13.70
2024-01-14T18:40:40.188Z,9.27
2024-01-14T18:43:09.222Z,8.07
2024-01-14T18:45:37.685Z,8.23
2024-01-14T18:48:06.413Z,6.32
2024-01-14T18:50:35.043Z,5.85
2024-01-14T18:53:02.792Z,8.27
2024-01-14T18:55:30.132Z,4.18
2024-01-14T18:57:58.380Z,7.07
2024-01-14T19:00:26.113Z,4.82
2024-01-14T19:02:53.548Z,5.68
2024-01-14T19:05:21.161Z,5.50
2024-01-14T19:07:48.562Z,4.30
2024-01-14T19:10:16.113Z,3.47
2024-01-14T19:12:43.651Z,4.97
2024-01-14T19:15:11.293Z,3.63
2024-01-14T19:17:38.674Z,3.35
2024-01-14T19:20:06.566Z,4.15
2024-01-14T19:22:33.922Z,6.97
2024-01-14T19:25:02.808Z,4.72
2024-01-14T19:27:30.410Z,4.32
2024-01-14T19:29:57.749Z,5.00
2024-01-14T19:32:25.170Z,3.08
2024-01-14T19:34:52.762Z,2.88
2024-01-14T19:37:22.398Z,1.85
2024-01-14T19:39:51.964Z,4.32
2024-01-14T19:42:19.629Z,3.42
2024-01-14T19:44:47.090Z,5.80
2024-01-14T19:47:14.528Z,5.15
2024-01-14T19:49:42.111Z,4.93
2024-01-14T19:52:09.656Z,4.90
2024-01-14T19:54:37.674Z,5.93
2024-01-14T19:57:05.998Z,8.23
2024-01-14T19:59:33.508Z,6.68
2024-01-14T20:02:01.417Z,4.15
2024-01-14T20:04:28.933Z,6.22
2024-01-14T20:06:56.515Z,5.65
2024-01-14T20:09:25.260Z,4.90
2024-01-14T20:11:55.699Z,4.85
2024-01-14T20:14:23.394Z,6.32
2024-01-14T20:16:52.396Z,6.93
2024-01-14T20:19:21.314Z,8.60
2024-01-14T20:21:56.077Z,6.78
2024-01-14T20:24:25.451Z,5.05
2024-01-14T20:26:52.916Z,3.97
2024-01-14T20:29:20.369Z,7.30
2024-01-14T20:31:47.756Z,7.45
2024-01-14T20:34:15.335Z,5.55
2024-01-14T20:36:42.858Z,7.72
2024-01-14T20:39:10.302Z,6.72
2024-01-14T20:41:37.785Z,5.75
2024-01-14T20:44:05.304Z,4.28
2024-01-14T20:46:32.662Z,3.92
2024-01-14T20:49:00.087Z,4.70
2024-01-14T20:51:27.568Z,4.18
2024-01-14T20:53:54.925Z,3.47
2024-01-14T20:56:22.333Z,4.10
2024-01-14T20:58:49.657Z,5.00
2024-01-14T21:01:17.213Z,6.80
2024-01-14T21:03:44.653Z,4.57
2024-01-14T21:06:15.918Z,4.50
2024-01-14T21:08:45.389Z,5.25
2024-01-14T21:11:14.348Z,4.57
2024-01-14T21:13:42.093Z,5.50
2024-01-14T21:16:09.512Z,3.45
2024-01-14T21:18:38.113Z,5.90
2024-01-14T21:21:19.728Z,2.58
2024-01-14T21:23:47.066Z,3.83
2024-01-14T21:26:14.351Z,4.75
2024-01-14T21:28:41.642Z,6.90
2024-01-14T21:31:09.173Z,2.42
2024-01-14T21:33:36.600Z,6.25
2024-01-14T21:36:04.529Z,4.57
2024-01-14T21:38:32.278Z,3.72
2024-01-14T21:40:59.868Z,3.97
2024-01-14T21:43:27.202Z,6.50
2024-01-14T21:45:55.208Z,2.95
2024-01-14T21:48:23.151Z,3.47
2024-01-14T21:50:50.902Z,2.88
2024-01-14T21:53:18.158Z,2.58
2024-01-14T21:55:46.596Z,4.20
2024-01-14T21:58:13.938Z,3.70
2024-01-14T22:00:41.457Z,5.85
2024-01-14T22:03:09.301Z,4.32
2024-01-14T22:05:36.925Z,3.78
2024-01-14T22:08:07.121Z,2.65
2024-01-14T22:10:34.609Z,5.18
2024-01-14T22:13:01.879Z,4.35
2024-01-14T22:15:29.270Z,5.03
2024-01-14T22:17:56.662Z,3.97
2024-01-14T22:20:24.048Z,1.48
2024-01-14T22:22:51.334Z,3.88
2024-01-14T22:25:18.665Z,5.30
2024-01-14T22:27:46.021Z,3.63
2024-01-14T22:30:15.494Z,4.45
2024-01-14T22:32:43.042Z,6.10
2024-01-14T22:35:11.191Z,4.75
2024-01-14T22:37:38.503Z,3.25
2024-01-14T22:40:06.129Z,1.77
2024-01-14T22:42:33.515Z,4.22
2024-01-14T22:45:00.981Z,4.68
2024-01-14T22:47:28.398Z,4.32
2024-01-14T22:49:55.920Z,4.15
2024-01-14T22:52:23.474Z,4.70
2024-01-14T22:54:51.102Z,4.35
2024-01-14T22:57:18.600Z,5.78
2024-01-14T22:59:46.018Z,4.10
2024-01-14T23:02:13.534Z,5.72
2024-01-14T23:04:40.904Z,3.10
2024-01-14T23:07:08.320Z,4.07
2024-01-14T23:09:35.781Z,5.45
2024-01-14T23:12:03.329Z,5.72
2024-01-14T23:14:30.724Z,9.95
2024-01-14T23:16:59.679Z,4.45
2024-01-14T23:19:27.126Z,4.82
2024-01-14T23:21:54.926Z,5.60
2024-01-14T23:24:22.340Z,6.50
2024-01-14T23:26:49.677Z,4.30
2024-01-14T23:29:17.006Z,4.60
2024-01-14T23:31:44.475Z,6.93
2024-01-14T23:34:12.654Z,7.07
2024-01-14T23:36:40.141Z,7.40
2024-01-14T23:39:09.954Z,7.15
2024-01-14T23:41:37.483Z,8.25
2024-01-14T23:44:04.753Z,4.60
2024-01-14T23:46:32.036Z,7.93
2024-01-14T23:49:00.487Z,4.38
2024-01-14T23:51:31.222Z,5.88
2024-01-14T23:53:58.532Z,5.75
2024-01-14T23:56:26.965Z,7.15
2024-01-14T23:58:56.734Z,3.20
